Time;durP1;ratioP1;P1;durP2;ratioP2;P2;SDS_P1;SDS_P2;PMS_P1;PMS_P2;Temp;Humidity;BMP_temperature;BMP_pressure;BME280_temperature;BME280_humidity;BME280_pressure;Samples;Min_cycle;Max_cycle;Signal;HPM_P1;HPM_P2
2022/12/15 00:40:58;;;;;;;10.15;4.07;;;;;;;0.85;100.00;98987.28;6347816;28;20403;-73
2022/12/15 00:43:59;;;;;;;14.20;4.78;;;;;;;0.85;100.00;98984.72;6388091;27;20471;-73
2022/12/15 00:47:00;;;;;;;8.35;4.28;;;;;;;0.80;100.00;98990.03;6373146;27;20035;-74
2022/12/15 01:20:19;;;;;;;7.95;4.60;;;;;;;0.98;100.00;99018.47;6346792;28;20411;-74
2022/12/15 01:23:19;;;;;;;12.20;4.60;;;;;;;0.97;100.00;99009.13;6345583;28;20040;-73
2022/12/15 01:26:20;;;;;;;6.22;4.25;;;;;;;0.98;100.00;99015.91;6346662;28;20066;-73
2022/12/15 01:29:24;;;;;;;12.30;4.40;;;;;;;0.99;100.00;99027.88;6380008;27;20074;-73
2022/12/15 01:32:25;;;;;;;11.15;5.70;;;;;;;0.99;100.00;99025.31;6379553;27;20069;-73
2022/12/15 01:35:26;;;;;;;7.28;3.63;;;;;;;0.94;100.00;99024.63;6345343;28;20043;-73
2022/12/15 01:38:29;;;;;;;11.20;4.88;;;;;;;0.99;100.00;99021.00;6346508;28;20491;-73
2022/12/15 01:41:30;;;;;;;8.45;4.07;;;;;;;0.95;100.00;99008.34;6362410;27;20036;-74
2022/12/15 01:44:31;;;;;;;10.30;5.05;;;;;;;0.89;100.00;98991.41;6346339;28;20063;-73
2022/12/15 01:47:31;;;;;;;12.43;6.97;;;;;;;0.84;100.00;98998.44;6346337;28;20044;-73
2022/12/15 01:50:39;;;;;;;7.72;4.88;;;;;;;0.88;100.00;98992.28;6345108;28;20071;-73
2022/12/15 01:53:49;;;;;;;11.20;4.85;;;;;;;0.88;100.00;98996.59;6345141;28;20483;-74
2022/12/15 01:56:54;;;;;;;9.55;5.22;;;;;;;0.76;100.00;99003.03;6346175;28;20399;-73
2022/12/15 02:00:00;;;;;;;7.07;4.53;;;;;;;0.73;100.00;98993.72;6344998;28;20459;-73
2022/12/15 02:03:03;;;;;;;13.60;5.20;;;;;;;0.82;100.00;99010.50;6346156;28;20040;-73
2022/12/15 02:06:06;;;;;;;8.27;4.50;;;;;;;0.88;100.00;99012.00;6345918;28;20046;-73
2022/12/15 02:09:09;;;;;;;5.75;3.75;;;;;;;0.95;100.00;99018.59;6345984;28;20407;-73
2022/12/15 02:12:13;;;;;;;7.18;3.55;;;;;;;0.95;100.00;99011.72;6345805;28;20056;-73
2022/12/15 02:15:28;;;;;;;10.85;5.35;;;;;;;0.94;100.00;99014.34;6344717;28;20039;-73
2022/12/15 02:18:54;;;;;;;8.23;4.63;;;;;;;0.96;100.00;99000.53;6361774;28;20040;-74
2022/12/15 02:22:38;;;;;;;9.13;4.80;;;;;;;1.00;100.00;99014.13;6344520;28;20051;-74
2022/12/15 02:25:55;;;;;;;6.75;3.60;;;;;;;1.01;100.00;99005.53;6267772;28;20052;-73
2022/12/15 02:29:40;;;;;;;9.48;4.68;;;;;;;0.98;100.00;99009.03;6261454;27;20045;-73
2022/12/15 02:32:55;;;;;;;4.47;3.03;;;;;;;1.04;100.00;99018.25;6261671;28;20048;-73
2022/12/15 02:36:02;;;;;;;7.72;5.05;;;;;;;1.09;100.00;99021.47;6366668;27;20047;-73
2022/12/15 02:39:04;;;;;;;8.30;4.00;;;;;;;1.03;100.00;99020.84;6350678;28;20031;-73
2022/12/15 02:42:04;;;;;;;6.95;4.38;;;;;;;1.08;100.00;99026.69;6350782;28;20040;-73
2022/12/15 02:45:09;;;;;;;7.68;4.05;;;;;;;1.10;100.00;99018.00;6350408;28;20069;-73
2022/12/15 02:48:36;;;;;;;8.02;3.65;;;;;;;1.16;100.00;99033.19;6366445;27;20070;-73
2022/12/15 02:52:17;;;;;;;5.75;3.50;;;;;;;1.24;100.00;99024.34;6343458;27;20063;-73
2022/12/15 02:55:33;;;;;;;4.78;2.75;;;;;;;1.23;100.00;99027.81;6350240;28;20054;-73
2022/12/15 02:59:10;;;;;;;4.63;2.50;;;;;;;1.28;100.00;99039.59;6349180;28;20050;-73
2022/12/15 03:02:12;;;;;;;5.90;3.05;;;;;;;1.31;100.00;99036.06;6348944;28;20114;-74
2022/12/15 03:05:14;;;;;;;;;;;;;;;1.28;100.00;99044.72;6350485;28;20039;-74
2022/12/15 03:08:15;;;;;;;3.83;2.67;;;;;;;1.27;100.00;99045.59;6366025;27;20280;-74
2022/12/15 03:11:16;;;;;;;5.30;3.10;;;;;;;1.33;100.00;99047.94;6348544;28;20065;-73
2022/12/15 03:14:17;;;;;;;6.10;3.70;;;;;;;1.43;100.00;99050.16;6349880;28;20491;-73
2022/12/15 03:17:18;;;;;;;10.73;3.60;;;;;;;1.36;100.00;99055.53;6349842;28;20048;-74
2022/12/15 03:20:19;;;;;;;5.90;3.60;;;;;;;1.32;100.00;99055.69;6365712;27;20450;-73
2022/12/15 03:23:21;;;;;;;14.13;4.85;;;;;;;1.38;100.00;99056.31;6349792;28;20096;-74
2022/12/15 03:26:22;;;;;;;7.65;4.10;;;;;;;1.41;100.00;99056.19;6349589;28;20046;-73
2022/12/15 03:29:23;;;;;;;6.07;2.92;;;;;;;1.41;100.00;99060.50;6348486;28;20436;-76
2022/12/15 03:32:23;;;;;;;4.15;2.65;;;;;;;1.43;100.00;99051.00;6365502;27;20071;-76
2022/12/15 03:35:24;;;;;;;4.32;2.88;;;;;;;1.41;100.00;99045.06;6348183;28;20078;-75
2022/12/15 03:38:25;;;;;;;8.95;4.00;;;;;;;1.43;100.00;99051.00;6348957;28;20457;-76
2022/12/15 03:41:28;;;;;;;4.80;3.00;;;;;;;1.50;100.00;99044.69;6349415;28;20115;-76
2022/12/15 03:44:29;;;;;;;7.10;3.38;;;;;;;1.46;100.00;99048.28;6365079;27;20472;-75
2022/12/15 03:47:30;;;;;;;7.60;4.75;;;;;;;1.49;100.00;99035.31;6349000;28;20050;-75
2022/12/15 03:50:31;;;;;;;5.80;3.40;;;;;;;1.53;100.00;99043.75;6349471;28;20044;-76
2022/12/15 03:53:32;;;;;;;6.20;3.20;;;;;;;1.55;100.00;99047.09;6349069;27;20067;-76
2022/12/15 03:56:32;;;;;;;4.68;3.78;;;;;;;1.60;100.00;99040.03;6347670;28;20063;-75
2022/12/15 03:59:33;;;;;;;10.85;3.88;;;;;;;1.51;100.00;99042.97;6347663;28;20483;-76
2022/12/15 04:02:34;;;;;;;6.88;3.20;;;;;;;1.51;100.00;99040.41;6347595;28;20040;-76
2022/12/15 04:05:34;;;;;;;8.02;3.10;;;;;;;1.40;100.00;99054.53;6381640;27;20067;-76
2022/12/15 04:08:35;;;;;;;8.18;3.55;;;;;;;1.43;100.00;99061.28;6348879;28;20114;-75
2022/12/15 04:11:36;;;;;;;3.33;2.25;;;;;;;1.49;100.00;99070.47;6348478;28;20048;-76
2022/12/15 04:14:41;;;;;;;5.80;3.42;;;;;;;1.57;100.00;99071.84;6347258;28;20048;-76
2022/12/15 04:17:42;;;;;;;5.65;3.28;;;;;;;1.51;100.00;99069.53;6348989;28;20047;-75
2022/12/15 04:20:43;;;;;;;6.57;3.78;;;;;;;1.42;100.00;99062.16;6347145;28;20463;-75
2022/12/15 05:33:41;;;;;;;6.45;3.55;;;;;;;1.34;100.00;99170.44;6346770;28;20046;-75
2022/12/15 05:36:41;;;;;;;5.82;3.17;;;;;;;1.35;100.00;99169.53;6346690;28;20067;-78
2022/12/15 05:39:42;;;;;;;11.43;3.85;;;;;;;1.40;100.00;99177.06;6362525;27;20057;-78
2022/12/15 05:42:43;;;;;;;8.52;4.30;;;;;;;1.32;100.00;99172.22;6346553;28;20062;-78
2022/12/15 05:45:43;;;;;;;9.00;4.53;;;;;;;1.31;100.00;99178.25;6346498;28;20067;-78
2022/12/15 05:48:46;;;;;;;10.88;5.80;;;;;;;1.38;100.00;99182.28;6345181;28;20502;-78
2022/12/15 05:51:48;;;;;;;6.28;3.75;;;;;;;1.42;100.00;99188.13;6346711;28;20050;-78
2022/12/15 05:54:48;;;;;;;8.73;3.63;;;;;;;1.40;100.00;99187.34;6362253;27;20039;-78
2022/12/15 05:57:51;;;;;;;5.45;3.40;;;;;;;1.42;100.00;99195.81;6345039;28;20061;-78
2022/12/15 06:00:53;;;;;;;8.00;3.53;;;;;;;1.37;100.00;99185.72;6348487;27;20041;-78
2022/12/15 06:03:54;;;;;;;6.97;3.55;;;;;;;1.41;100.00;99189.84;6356740;27;20122;-77
2022/12/15 06:06:54;;;;;;;8.23;4.45;;;;;;;1.39;100.00;99201.94;6370377;27;20046;-79
2022/12/15 06:09:55;;;;;;;6.18;4.18;;;;;;;1.38;100.00;99200.28;6370417;28;20069;-78
2022/12/15 06:12:56;;;;;;;11.75;4.47;;;;;;;1.44;100.00;99193.22;6334125;28;20327;-79
2022/12/15 06:16:09;;;;;;;6.32;3.38;;;;;;;1.39;100.00;99195.97;6347074;28;20046;-79
2022/12/15 06:19:10;;;;;;;9.05;3.83;;;;;;;1.43;100.00;99205.22;6355971;28;20044;-78
2022/12/15 06:22:11;;;;;;;11.82;4.28;;;;;;;1.40;100.00;99208.75;6344777;28;20495;-79
2022/12/15 06:25:12;;;;;;;4.75;2.97;;;;;;;1.35;100.00;99204.69;6345872;28;20035;-78
2022/12/15 06:28:12;;;;;;;6.82;3.78;;;;;;;1.33;100.00;99209.88;6361112;27;20456;-79
2022/12/15 06:31:15;;;;;;;5.47;3.05;;;;;;;1.31;100.00;99203.94;6345891;27;20047;-76
2022/12/15 06:34:16;;;;;;;5.70;3.15;;;;;;;1.25;100.00;99203.34;6359354;27;20134;-76
2022/12/15 06:37:17;;;;;;;5.03;2.95;;;;;;;1.26;100.00;99218.72;6336325;28;20075;-76
2022/12/15 06:40:17;;;;;;;4.55;3.28;;;;;;;1.36;100.00;99237.19;6350820;27;20055;-76
2022/12/15 06:43:18;;;;;;;8.90;3.20;;;;;;;1.39;100.00;99243.06;6362255;27;20075;-76
2022/12/15 06:46:19;;;;;;;4.80;3.08;;;;;;;1.36;100.00;99242.31;6360287;28;20039;-76
2022/12/15 06:49:20;;;;;;;5.18;2.85;;;;;;;1.34;100.00;99244.13;6348544;28;20500;-76
2022/12/15 06:52:21;;;;;;;7.22;3.83;;;;;;;1.48;100.00;99259.03;6344641;28;20040;-76
2022/12/15 06:55:24;;;;;;;8.88;3.80;;;;;;;1.41;100.00;99264.41;6345544;28;20043;-76
2022/12/15 06:58:24;;;;;;;11.32;4.32;;;;;;;1.49;100.00;99266.72;6344175;28;20044;-76
2022/12/15 07:01:26;;;;;;;6.00;3.67;;;;;;;1.52;100.00;99264.00;6345419;28;20067;-76
2022/12/15 07:04:27;;;;;;;5.05;3.55;;;;;;;1.45;100.00;99262.56;6361365;27;20075;-78
2022/12/15 07:07:27;;;;;;;6.03;2.53;;;;;;;1.43;100.00;99277.22;6361150;27;20100;-78
2022/12/15 07:10:28;;;;;;;6.35;3.15;;;;;;;1.46;100.00;99278.81;6344227;28;20078;-78
2022/12/15 07:13:29;;;;;;;4.07;2.80;;;;;;;1.48;100.00;99280.44;6350126;27;20062;-78
2022/12/15 07:16:31;;;;;;;9.48;3.40;;;;;;;1.53;100.00;99296.56;6374347;27;20043;-78
2022/12/15 07:19:31;;;;;;;6.70;3.08;;;;;;;1.57;100.00;99300.69;6365100;27;20440;-78
2022/12/15 07:22:32;;;;;;;6.15;3.53;;;;;;;1.56;100.00;99301.56;6331604;28;20120;-79
2022/12/15 07:25:35;;;;;;;8.63;3.38;;;;;;;1.57;100.00;99295.56;6349754;28;20043;-78
2022/12/15 07:28:37;;;;;;;4.93;3.05;;;;;;;1.56;100.00;99306.72;6349609;28;20048;-78
2022/12/15 07:31:38;;;;;;;5.78;3.15;;;;;;;1.54;100.00;99316.22;6365579;27;20050;-79
2022/12/15 07:34:38;;;;;;;6.55;3.70;;;;;;;1.61;100.00;99334.88;6349611;28;20048;-78
2022/12/15 07:37:39;;;;;;;7.35;4.00;;;;;;;1.60;100.00;99335.75;6348316;28;20039;-78
2022/12/15 07:40:40;;;;;;;6.50;3.35;;;;;;;1.52;100.00;99342.88;6349497;28;20036;-79
2022/12/15 07:43:40;;;;;;;5.75;2.90;;;;;;;1.62;100.00;99357.09;6349290;28;20139;-79
2022/12/15 07:46:45;;;;;;;4.80;2.55;;;;;;;1.74;100.00;99361.81;6348158;28;20089;-78
2022/12/15 07:49:46;;;;;;;6.47;2.90;;;;;;;1.61;100.00;99356.28;6349199;28;20064;-79
2022/12/15 07:52:49;;;;;;;10.07;3.95;;;;;;;1.77;100.00;99363.41;6354853;27;20034;-79
2022/12/15 07:55:57;;;;;;;7.20;2.88;;;;;;;1.74;100.00;99369.53;6367368;27;20053;-79
2022/12/15 07:58:58;;;;;;;5.55;3.15;;;;;;;1.71;100.00;99387.66;6375052;27;20047;-79
2022/12/15 08:02:03;;;;;;;6.13;2.80;;;;;;;1.83;100.00;99400.97;6362054;27;20126;-80
2022/12/15 08:05:04;;;;;;;12.43;3.95;;;;;;;1.79;100.00;99401.09;6380108;27;20039;-79
2022/12/15 08:08:04;;;;;;;13.55;4.30;;;;;;;1.76;100.00;99413.19;6355842;27;20495;-79
2022/12/15 08:11:08;;;;;;;10.30;4.03;;;;;;;1.88;100.00;99411.94;6374252;27;20054;-79
2022/12/15 08:14:08;;;;;;;6.78;3.17;;;;;;;1.84;100.00;99418.09;6373028;27;20047;-79
2022/12/15 08:17:09;;;;;;;5.13;3.08;;;;;;;1.88;100.00;99417.91;6360635;27;20054;-79
2022/12/15 08:20:10;;;;;;;9.35;3.50;;;;;;;1.85;100.00;99415.44;6353391;27;20119;-79
2022/12/15 08:23:10;;;;;;;7.57;3.85;;;;;;;1.95;100.00;99418.53;6348446;28;20456;-79
2022/12/15 08:26:14;;;;;;;12.75;4.03;;;;;;;1.97;100.00;99427.88;6353825;27;20070;-79
2022/12/15 08:29:15;;;;;;;5.03;3.22;;;;;;;2.01;100.00;99438.91;6370491;27;20077;-79
2022/12/15 08:32:16;;;;;;;6.82;3.08;;;;;;;2.04;100.00;99441.38;6369118;27;20031;-79
2022/12/15 08:35:19;;;;;;;8.73;2.88;;;;;;;2.15;100.00;99446.13;6389835;27;20047;-77
2022/12/15 08:38:20;;;;;;;9.80;4.20;;;;;;;2.34;100.00;99448.88;6372246;27;20039;-76
2022/12/15 08:41:23;;;;;;;15.68;4.40;;;;;;;2.41;100.00;99460.63;6372054;27;20050;-80
2022/12/15 08:44:23;;;;;;;7.68;3.70;;;;;;;2.37;100.00;99465.06;6355018;27;20116;-76
2022/12/15 08:47:24;;;;;;;7.13;4.75;;;;;;;2.34;100.00;99466.88;6406760;27;20484;-76
2022/12/15 08:50:25;;;;;;;4.78;3.50;;;;;;;2.30;100.00;99471.31;6373138;27;20043;-76
2022/12/15 08:53:26;;;;;;;8.15;3.90;;;;;;;2.19;100.00;99469.13;6373231;27;20505;-76
2022/12/15 08:56:27;;;;;;;14.35;4.70;;;;;;;2.30;100.00;99463.56;6354699;27;20047;-76
2022/12/15 08:59:28;;;;;;;13.73;7.82;;;;;;;2.19;100.00;99463.97;6371787;27;20050;-76
2022/12/15 09:02:28;;;;;;;8.77;4.55;;;;;;;2.23;100.00;99475.00;6354525;27;20056;-76
2022/12/15 09:05:29;;;;;;;15.45;6.47;;;;;;;2.26;100.00;99469.72;6371993;27;20131;-76
2022/12/15 09:08:30;;;;;;;12.43;4.75;;;;;;;2.21;100.00;99469.91;6405536;27;20031;-80
2022/12/15 09:11:31;;;;;;;8.27;3.58;;;;;;;2.33;100.00;99470.38;6371305;27;20056;-76
2022/12/15 09:14:34;;;;;;;6.47;4.32;;;;;;;2.29;100.00;99468.81;6371362;27;20077;-76
2022/12/15 09:17:35;;;;;;;5.97;3.63;;;;;;;2.20;100.00;99459.66;6354061;27;20534;-76
2022/12/15 09:20:36;;;;;;;5.53;2.60;;;;;;;2.35;100.00;99460.84;6371134;27;20039;-76
2022/12/15 09:23:38;;;;;;;10.77;4.68;;;;;;;2.34;100.00;99478.03;6354106;27;20047;-80
2022/12/15 09:26:39;;;;;;;8.50;4.28;;;;;;;2.37;100.00;99487.38;6348744;27;20445;-76
2022/12/15 09:29:40;;;;;;;12.70;4.70;;;;;;;2.37;100.00;99477.94;6382870;27;20063;-76
2022/12/15 09:32:41;;;;;;;13.25;5.13;;;;;;;2.33;100.00;99480.69;6360347;27;20479;-76
2022/12/15 09:35:49;;;;;;;12.25;5.22;;;;;;;2.32;100.00;99478.97;6348705;27;20039;-80
2022/12/15 09:38:51;;;;;;;11.52;5.72;;;;;;;2.43;100.00;99482.00;6343925;28;20043;-81
2022/12/15 09:41:58;;;;;;;18.00;5.72;;;;;;;2.52;100.00;99501.44;6344919;28;20047;-80
2022/12/15 09:45:18;;;;;;;11.15;5.53;;;;;;;2.51;100.00;99492.88;6345124;28;20039;-80
2022/12/15 09:48:21;;;;;;;10.02;4.38;;;;;;;2.52;100.00;99504.00;6345097;28;20043;-76
2022/12/15 09:51:33;;;;;;;9.85;5.93;;;;;;;2.32;100.00;99508.13;6344830;28;20040;-76
2022/12/15 09:54:33;;;;;;;15.63;6.03;;;;;;;2.42;100.00;99506.06;6345989;28;20047;-76
2022/12/15 09:57:39;;;;;;;19.42;5.82;;;;;;;2.41;100.00;99486.38;6344976;28;20448;-80
2022/12/15 10:00:54;;;;;;;20.83;8.35;;;;;;;2.62;100.00;99484.75;6345955;28;20035;-80
2022/12/15 10:04:07;;;;;;;13.13;6.68;;;;;;;2.73;100.00;99485.16;6344496;28;20522;-76
2022/12/15 10:07:31;;;;;;;16.58;5.82;;;;;;;2.74;100.00;99473.97;6344786;28;20040;-80
2022/12/15 10:10:35;;;;;;;15.40;4.45;;;;;;;2.94;100.00;99465.47;6344348;28;20079;-80
2022/12/15 10:13:50;;;;;;;9.15;5.28;;;;;;;3.16;100.00;99462.88;6345832;28;20120;-80
2022/12/15 10:17:05;;;;;;;12.50;6.25;;;;;;;3.25;100.00;99438.47;6344666;28;20041;-80
2022/12/15 10:20:29;;;;;;;12.02;5.93;;;;;;;3.11;100.00;99440.75;6344471;28;20051;-80
2022/12/15 10:23:34;;;;;;;7.20;3.80;;;;;;;3.00;100.00;99442.03;6345784;28;20114;-80
2022/12/15 10:26:34;;;;;;;15.55;5.30;;;;;;;2.92;100.00;99438.91;6344409;28;20384;-76
2022/12/15 10:29:46;;;;;;;14.45;7.05;;;;;;;2.97;100.00;99449.06;6327367;28;20058;-80
2022/12/15 10:32:49;;;;;;;10.32;5.65;;;;;;;3.05;100.00;99448.72;6344786;28;20035;-80
2022/12/15 10:35:52;;;;;;;8.02;5.22;;;;;;;3.05;100.00;99456.47;6345678;28;20092;-80
2022/12/15 10:38:53;;;;;;;12.65;5.53;;;;;;;3.03;100.00;99453.97;6345552;28;20048;-76
2022/12/15 10:42:12;;;;;;;12.40;6.07;;;;;;;3.05;100.00;99470.22;6344294;28;20036;-77
2022/12/15 10:45:37;;;;;;;12.80;4.75;;;;;;;3.16;100.00;99486.09;6344196;28;20039;-76
2022/12/15 10:48:38;;;;;;;9.00;5.28;;;;;;;3.15;100.00;99486.13;6346266;28;20043;-76
2022/12/15 10:51:52;;;;;;;9.90;5.30;;;;;;;3.12;100.00;99486.28;6350500;28;20131;-76
2022/12/15 10:54:54;;;;;;;12.13;5.47;;;;;;;3.14;100.00;99493.03;6349204;28;20446;-76
2022/12/15 10:58:01;;;;;;;6.43;4.30;;;;;;;3.11;100.00;99500.03;6350435;28;20183;-80
2022/12/15 11:01:15;;;;;;;7.78;4.80;;;;;;;3.13;100.00;99506.84;6348799;28;20048;-80
2022/12/15 11:04:32;;;;;;;10.55;3.92;;;;;;;3.12;100.00;99514.63;6349011;28;20533;-80
2022/12/15 11:07:41;;;;;;;11.48;5.25;;;;;;;3.10;100.00;99519.84;6348883;28;20046;-76
2022/12/15 11:14:24;;;;;;;8.35;4.05;;;;;;;3.21;100.00;99502.22;6349992;28;20043;-76
2022/12/15 11:17:39;;;;;;;8.23;4.53;;;;;;;3.17;100.00;99492.94;6349904;28;20035;-80
2022/12/15 11:20:51;;;;;;;20.08;9.95;;;;;;;3.12;100.00;99491.44;6350174;27;20069;-80
2022/12/15 11:24:03;;;;;;;12.87;7.13;;;;;;;3.08;100.00;99488.13;6358711;27;20054;-80
2022/12/15 11:27:08;;;;;;;15.38;5.47;;;;;;;3.03;100.00;99483.16;6361437;27;20042;-80
2022/12/15 11:30:11;;;;;;;11.57;4.88;;;;;;;3.04;100.00;99491.72;6355484;27;20122;-80
2022/12/15 11:33:13;;;;;;;11.48;4.05;;;;;;;3.02;100.00;99481.47;6354142;27;20067;-77
2022/12/15 11:36:37;;;;;;;9.02;4.35;;;;;;;2.94;100.00;99483.50;6349529;28;20108;-76
2022/12/15 11:40:10;;;;;;;13.93;4.90;;;;;;;3.13;100.00;99477.63;6362681;27;20039;-80
2022/12/15 11:43:17;;;;;;;5.30;3.45;;;;;;;3.23;100.00;99486.66;6373512;27;20067;-80
2022/12/15 11:46:29;;;;;;;7.32;4.63;;;;;;;3.26;100.00;99485.72;6373563;27;20515;-76
2022/12/15 11:49:33;;;;;;;5.93;4.53;;;;;;;3.34;100.00;99481.94;6356270;27;20047;-80
2022/12/15 11:52:47;;;;;;;10.02;5.60;;;;;;;3.36;100.00;99469.81;6373141;27;20055;-80
2022/12/15 11:56:16;;;;;;;10.48;5.53;;;;;;;3.44;100.00;99485.00;6374686;27;20043;-78
2022/12/15 11:59:28;;;;;;;7.97;3.75;;;;;;;3.48;100.00;99481.38;6366547;27;20043;-74
2022/12/15 12:02:54;;;;;;;14.43;4.47;;;;;;;3.63;100.00;99491.06;6365935;27;20050;-74
2022/12/15 12:06:13;;;;;;;13.70;6.35;;;;;;;3.69;100.00;99492.56;6372476;27;20059;-74
2022/12/15 12:09:37;;;;;;;6.63;4.53;;;;;;;3.70;100.00;99485.66;6374338;27;20039;-81
2022/12/15 12:12:50;;;;;;;17.92;8.18;;;;;;;3.54;100.00;99491.44;6373751;27;20127;-79
2022/12/15 12:16:19;;;;;;;12.55;6.75;;;;;;;3.57;100.00;99490.47;6372879;27;20483;-78
2022/12/15 12:19:44;;;;;;;9.02;5.07;;;;;;;3.51;100.00;99491.56;6372931;27;20047;-74
2022/12/15 12:22:52;;;;;;;9.23;5.10;;;;;;;3.37;100.00;99470.66;6355283;27;20479;-78
2022/12/15 12:26:17;;;;;;;15.32;4.50;;;;;;;3.59;100.00;99481.78;6374079;27;20410;-78
2022/12/15 12:29:27;;;;;;;12.65;8.25;;;;;;;3.59;100.00;99468.88;6373937;27;20122;-78
2022/12/15 12:32:38;;;;;;;23.38;7.53;;;;;;;3.63;100.00;99465.25;6372707;27;20043;-79
2022/12/15 12:35:50;;;;;;;16.05;8.13;;;;;;;3.59;100.00;99458.56;6355349;27;20051;-81
2022/12/15 12:38:58;;;;;;;19.33;7.82;;;;;;;3.62;100.00;99467.91;6371794;27;20414;-81
2022/12/15 12:42:10;;;;;;;12.55;7.50;;;;;;;3.53;100.00;99470.88;6371778;27;20051;-80
2022/12/15 12:45:13;;;;;;;15.07;9.20;;;;;;;3.61;100.00;99461.91;6371743;27;20047;-77
2022/12/15 12:48:32;;;;;;;16.13;6.10;;;;;;;3.50;100.00;99460.66;6372237;27;20440;-77
2022/12/15 12:51:35;;;;;;;12.02;5.53;;;;;;;3.75;100.00;99457.91;6372435;27;20486;-77
2022/12/15 12:54:35;;;;;;;17.30;7.63;;;;;;;3.84;100.00;99460.09;6357688;27;20048;-77
2022/12/15 12:57:44;;;;;;;18.08;8.55;;;;;;;3.78;100.00;99461.19;6346404;28;20050;-77
2022/12/15 13:01:05;;;;;;;24.58;11.63;;;;;;;3.77;100.00;99471.59;6363756;27;20077;-77
2022/12/15 13:04:33;;;;;;;15.27;6.75;;;;;;;3.81;100.00;99471.41;6346068;28;20047;-77
2022/12/15 13:07:44;;;;;;;9.60;5.07;;;;;;;3.78;100.00;99475.84;6347214;28;20050;-77
2022/12/15 13:10:47;;;;;;;13.32;6.90;;;;;;;3.79;100.00;99483.53;6362280;27;20142;-75
2022/12/15 13:13:48;;;;;;;13.13;7.25;;;;;;;3.75;100.00;99496.63;6328699;28;20048;-79
2022/12/15 13:16:54;;;;;;;;;;;;;;;3.70;100.00;99501.13;6346388;28;20507;-79
2022/12/15 13:19:58;;;;;;;10.98;5.93;;;;;;;3.65;100.00;99509.06;6380203;27;19919;-78
2022/12/15 13:23:20;;;;;;;8.93;5.22;;;;;;;3.62;100.00;99504.88;6380087;27;20105;-79
2022/12/15 13:26:23;;;;;;;9.25;5.50;;;;;;;3.59;100.00;99496.41;6354432;27;20048;-79
2022/12/15 13:29:24;;;;;;;36.25;16.80;;;;;;;3.61;100.00;99485.13;6346733;28;20403;-79
2022/12/15 13:32:34;;;;;;;14.70;9.10;;;;;;;3.59;100.00;99492.09;6345640;28;20039;-75
2022/12/15 13:35:35;;;;;;;12.02;6.50;;;;;;;3.56;100.00;99493.94;6362278;27;20048;-74
2022/12/15 13:38:53;;;;;;;11.68;5.72;;;;;;;3.54;100.00;99482.84;6345543;28;20043;-79
2022/12/15 13:41:54;;;;;;;9.25;5.80;;;;;;;3.60;100.00;99477.44;6345268;28;20377;-79
2022/12/15 13:45:05;;;;;;;18.90;9.15;;;;;;;3.56;100.00;99471.59;6345311;28;20035;-79
2022/12/15 13:48:17;;;;;;;20.35;9.57;;;;;;;3.50;100.00;99466.69;6345383;28;20051;-79
2022/12/15 13:51:20;;;;;;;13.25;8.05;;;;;;;3.53;100.00;99476.03;6346530;28;20036;-74
2022/12/15 13:54:32;;;;;;;12.48;7.22;;;;;;;3.50;100.00;99481.31;6345249;28;20122;-79
2022/12/15 13:57:44;;;;;;;12.98;8.60;;;;;;;3.48;100.00;99485.69;6345218;28;20437;-79
2022/12/15 14:00:54;;;;;;;15.25;8.55;;;;;;;3.49;100.00;99495.94;6345059;28;20051;-79
2022/12/15 14:04:15;;;;;;;12.50;8.13;;;;;;;3.50;100.00;99500.22;6344966;28;20047;-79
2022/12/15 14:07:16;;;;;;;15.05;6.70;;;;;;;3.54;100.00;99493.16;6327889;28;20054;-79
2022/12/15 14:10:40;;;;;;;20.25;8.25;;;;;;;3.57;100.00;99509.38;6344866;28;20056;-79
2022/12/15 14:13:42;;;;;;;45.63;15.27;;;;;;;3.54;100.00;99513.81;6365630;27;20076;-78
2022/12/15 14:16:43;;;;;;;41.00;12.90;;;;;;;3.57;100.00;99511.13;6348950;27;20119;-81
2022/12/15 14:19:49;;;;;;;21.42;7.70;;;;;;;3.57;100.00;99504.22;6371822;27;20299;-81
2022/12/15 14:22:51;;;;;;;16.17;7.05;;;;;;;3.56;100.00;99517.16;6367557;27;20137;-81
2022/12/15 14:26:03;;;;;;;19.92;6.45;;;;;;;3.51;100.00;99529.41;6351561;27;20051;-81
2022/12/15 14:29:05;;;;;;;8.73;5.38;;;;;;;3.49;100.00;99529.47;6375576;27;20122;-80
2022/12/15 14:32:07;;;;;;;27.40;9.63;;;;;;;3.54;100.00;99539.59;6358185;27;20081;-81
2022/12/15 14:35:27;;;;;;;27.10;9.98;;;;;;;3.52;100.00;99543.97;6371042;27;20077;-81
2022/12/15 14:38:38;;;;;;;20.02;9.50;;;;;;;3.50;100.00;99543.22;6332703;28;20051;-81
2022/12/15 14:41:44;;;;;;;18.25;7.45;;;;;;;3.40;100.00;99537.59;6349863;27;20047;-79
2022/12/15 14:44:45;;;;;;;11.85;6.45;;;;;;;3.36;100.00;99538.63;6368819;27;20073;-79
2022/12/15 14:47:59;;;;;;;9.57;6.05;;;;;;;3.41;100.00;99547.00;6375330;27;20045;-81
2022/12/15 14:51:01;;;;;;;18.20;7.10;;;;;;;3.43;100.00;99551.19;6375048;27;20046;-80
2022/12/15 14:54:02;;;;;;;13.25;7.47;;;;;;;3.43;100.00;99553.78;6357764;27;20426;-77
2022/12/15 14:57:15;;;;;;;10.05;6.35;;;;;;;3.40;100.00;99559.06;6374913;27;20039;-77
2022/12/15 15:00:34;;;;;;;15.43;8.52;;;;;;;3.37;100.00;99558.34;6374803;27;20039;-77
2022/12/15 15:03:37;;;;;;;21.00;10.23;;;;;;;3.28;100.00;99554.38;6352019;27;20040;-76
2022/12/15 15:06:39;;;;;;;24.10;11.00;;;;;;;3.37;100.00;99554.00;6348942;28;20043;-74
2022/12/15 15:09:43;;;;;;;23.67;11.02;;;;;;;3.35;100.00;99545.50;6332097;28;20048;-77
2022/12/15 15:12:48;;;;;;;22.05;12.23;;;;;;;3.46;100.00;99552.84;6358958;27;20062;-79
2022/12/15 15:15:54;;;;;;;24.67;12.50;;;;;;;3.42;100.00;99544.38;6354954;27;20088;-81
2022/12/15 15:18:59;;;;;;;21.40;11.05;;;;;;;3.42;100.00;99536.63;6374348;27;20046;-79
2022/12/15 15:22:01;;;;;;;26.80;14.30;;;;;;;3.45;100.00;99540.00;6371038;27;20063;-79
2022/12/15 15:25:18;;;;;;;36.28;18.60;;;;;;;3.38;100.00;99534.25;6369749;27;20063;-79
2022/12/15 15:28:21;;;;;;;31.67;17.35;;;;;;;3.35;100.00;99521.44;6353172;27;20044;-79
2022/12/15 15:31:37;;;;;;;29.90;15.50;;;;;;;3.32;100.00;99526.75;6348948;27;20123;-79
2022/12/15 15:34:38;;;;;;;36.58;14.77;;;;;;;3.25;100.00;99520.13;6347244;28;20074;-79
2022/12/15 15:37:39;;;;;;;24.05;11.57;;;;;;;3.24;100.00;99516.72;6331306;28;20100;-79
2022/12/15 15:40:40;;;;;;;28.55;11.55;;;;;;;3.26;100.00;99532.97;6348243;28;20051;-79
2022/12/15 15:43:41;;;;;;;22.00;11.27;;;;;;;3.20;100.00;99530.63;6349395;28;20032;-79
2022/12/15 15:46:49;;;;;;;15.90;9.30;;;;;;;3.17;100.00;99533.31;6382402;27;20531;-79
2022/12/15 15:49:55;;;;;;;15.02;9.85;;;;;;;3.17;100.00;99530.75;6349685;28;20039;-79
2022/12/15 15:52:56;;;;;;;18.05;10.05;;;;;;;3.19;100.00;99528.94;6347808;28;20746;-75
2022/12/15 15:55:57;;;;;;;14.68;9.55;;;;;;;3.18;100.00;99542.75;6349038;28;20044;-75
2022/12/15 15:59:08;;;;;;;17.98;9.25;;;;;;;3.20;100.00;99552.09;6382140;27;20046;-75
2022/12/15 16:02:12;;;;;;;11.82;6.90;;;;;;;3.14;100.00;99561.81;6347819;28;20043;-75
2022/12/15 16:05:13;;;;;;;15.63;9.05;;;;;;;3.17;100.00;99559.97;6347412;28;20395;-75
2022/12/15 16:08:17;;;;;;;16.50;8.35;;;;;;;3.25;100.00;99563.97;6347395;28;20044;-75
2022/12/15 16:11:27;;;;;;;18.02;8.77;;;;;;;3.18;100.00;99543.59;6348658;28;20492;-75
2022/12/15 16:14:30;;;;;;;13.63;9.07;;;;;;;3.17;100.00;99562.53;6348578;28;20100;-75
2022/12/15 16:17:30;;;;;;;15.75;7.68;;;;;;;3.26;100.00;99574.22;6347454;28;20050;-75
2022/12/15 16:20:33;;;;;;;15.40;8.38;;;;;;;3.26;100.00;99581.13;6330145;28;20098;-75
2022/12/15 16:23:33;;;;;;;15.98;8.82;;;;;;;3.26;100.00;99578.56;6364387;27;20054;-75
2022/12/15 16:26:37;;;;;;;20.95;11.40;;;;;;;3.20;100.00;99567.56;6364052;27;20044;-75
2022/12/15 16:29:38;;;;;;;22.17;10.90;;;;;;;3.21;100.00;99564.09;6346904;28;20052;-75
2022/12/15 16:32:39;;;;;;;17.92;8.98;;;;;;;3.14;100.00;99556.66;6346971;28;20082;-76
2022/12/15 16:35:42;;;;;;;17.92;7.88;;;;;;;3.11;100.00;99537.00;6348056;28;20048;-75
2022/12/15 16:38:42;;;;;;;;;;;;;;;3.21;100.00;99535.75;6348452;28;20040;-75
2022/12/15 16:41:43;;;;;;;15.07;6.32;;;;;;;3.16;100.00;99532.50;6346813;28;20295;-75
2022/12/15 16:44:44;;;;;;;20.55;12.00;;;;;;;3.13;100.00;99530.03;6347579;28;20042;-75
2022/12/15 16:47:45;;;;;;;12.98;8.68;;;;;;;3.08;100.00;99542.25;6347793;28;20384;-75
2022/12/15 16:50:50;;;;;;;23.80;12.25;;;;;;;3.18;100.00;99541.00;6346578;28;20411;-76
2022/12/15 16:53:51;;;;;;;23.95;14.27;;;;;;;3.18;100.00;99543.59;6346330;28;20076;-76